sensor_id;sensor_type;location;lat;lon;timestamp;temperature;humidity
66582;SHT31;53438;48.898;2.308;2022-10-17T03:01:25;18.91;74.75
66582;SHT31;53438;48.898;2.308;2022-10-17T03:03:50;18.86;74.67
66582;SHT31;53438;48.898;2.308;2022-10-17T03:06:28;18.94;74.21
66582;SHT31;53438;48.898;2.308;2022-10-17T03:08:53;18.95;74.25
66582;SHT31;53438;48.898;2.308;2022-10-17T03:11:19;18.94;74.51
66582;SHT31;53438;48.898;2.308;2022-10-17T03:13:44;19.12;73.81
66582;SHT31;53438;48.898;2.308;2022-10-17T03:16:09;19.08;73.79
66582;SHT31;53438;48.898;2.308;2022-10-17T03:18:34;19.03;73.97
66582;SHT31;53438;48.898;2.308;2022-10-17T03:21:00;18.96;74.25
66582;SHT31;53438;48.898;2.308;2022-10-17T03:23:25;18.92;74.33
66582;SHT31;53438;48.898;2.308;2022-10-17T03:25:50;19.06;73.93
66582;SHT31;53438;48.898;2.308;2022-10-17T03:28:16;18.99;74.12
66582;SHT31;53438;48.898;2.308;2022-10-17T03:30:41;18.92;74.42
66582;SHT31;53438;48.898;2.308;2022-10-17T03:33:06;18.91;74.29
66582;SHT31;53438;48.898;2.308;2022-10-17T03:35:32;18.91;74.51
66582;SHT31;53438;48.898;2.308;2022-10-17T03:37:57;18.89;74.36
66582;SHT31;53438;48.898;2.308;2022-10-17T03:40:22;18.98;74.11
66582;SHT31;53438;48.898;2.308;2022-10-17T03:42:48;18.89;74.29
66582;SHT31;53438;48.898;2.308;2022-10-17T03:45:13;18.88;74.29
66582;SHT31;53438;48.898;2.308;2022-10-17T03:47:38;18.95;74.10
66582;SHT31;53438;48.898;2.308;2022-10-17T03:50:04;19.02;73.49
66582;SHT31;53438;48.898;2.308;2022-10-17T03:52:30;19.09;73.12
66582;SHT31;53438;48.898;2.308;2022-10-17T03:54:55;18.96;73.52
66582;SHT31;53438;48.898;2.308;2022-10-17T03:57:20;18.95;73.62
66582;SHT31;53438;48.898;2.308;2022-10-17T03:59:46;18.88;73.39
66582;SHT31;53438;48.898;2.308;2022-10-17T04:02:11;18.91;73.45
66582;SHT31;53438;48.898;2.308;2022-10-17T04:04:37;18.89;73.30
66582;SHT31;53438;48.898;2.308;2022-10-17T04:07:03;18.89;73.24
66582;SHT31;53438;48.898;2.308;2022-10-17T04:09:28;18.98;72.79
66582;SHT31;53438;48.898;2.308;2022-10-17T04:11:53;19.00;72.46
66582;SHT31;53438;48.898;2.308;2022-10-17T04:14:19;19.00;72.84
66582;SHT31;53438;48.898;2.308;2022-10-17T04:16:44;18.99;72.53
66582;SHT31;53438;48.898;2.308;2022-10-17T04:19:12;18.92;72.78
66582;SHT31;53438;48.898;2.308;2022-10-17T04:21:37;18.89;72.96
66582;SHT31;53438;48.898;2.308;2022-10-17T04:24:03;18.85;73.10
66582;SHT31;53438;48.898;2.308;2022-10-17T04:26:28;18.91;72.94
66582;SHT31;53438;48.898;2.308;2022-10-17T04:28:54;18.85;72.81
66582;SHT31;53438;48.898;2.308;2022-10-17T04:31:19;18.84;73.02
66582;SHT31;53438;48.898;2.308;2022-10-17T04:33:49;18.82;72.59
66582;SHT31;53438;48.898;2.308;2022-10-17T04:36:17;18.82;72.85
66582;SHT31;53438;48.898;2.308;2022-10-17T04:38:43;18.91;72.31
66582;SHT31;53438;48.898;2.308;2022-10-17T04:41:15;18.86;72.34
66582;SHT31;53438;48.898;2.308;2022-10-17T04:43:40;18.86;72.64
66582;SHT31;53438;48.898;2.308;2022-10-17T04:46:11;18.86;72.55
66582;SHT31;53438;48.898;2.308;2022-10-17T04:48:37;18.81;72.69
66582;SHT31;53438;48.898;2.308;2022-10-17T04:51:06;18.79;72.68
66582;SHT31;53438;48.898;2.308;2022-10-17T04:53:36;18.86;72.57
66582;SHT31;53438;48.898;2.308;2022-10-17T04:56:11;18.82;72.25
66582;SHT31;53438;48.898;2.308;2022-10-17T04:58:37;18.79;72.58
66582;SHT31;53438;48.898;2.308;2022-10-17T05:01:11;18.82;72.22
66582;SHT31;53438;48.898;2.308;2022-10-17T05:03:36;18.84;72.35
66582;SHT31;53438;48.898;2.308;2022-10-17T05:06:06;18.81;72.03
66582;SHT31;53438;48.898;2.308;2022-10-17T05:08:32;18.81;72.36
66582;SHT31;53438;48.898;2.308;2022-10-17T05:10:58;18.85;72.50
66582;SHT31;53438;48.898;2.308;2022-10-17T05:13:23;18.84;72.66
66582;SHT31;53438;48.898;2.308;2022-10-17T05:15:48;18.84;73.12
66582;SHT31;53438;48.898;2.308;2022-10-17T05:18:14;18.79;73.05
66582;SHT31;53438;48.898;2.308;2022-10-17T05:20:39;18.76;73.47
66582;SHT31;53438;48.898;2.308;2022-10-17T05:23:05;18.78;73.42
66582;SHT31;53438;48.898;2.308;2022-10-17T05:25:30;18.82;73.90
66582;SHT31;53438;48.898;2.308;2022-10-17T05:27:55;18.85;73.77
66582;SHT31;53438;48.898;2.308;2022-10-17T05:30:21;18.79;73.88
66582;SHT31;53438;48.898;2.308;2022-10-17T05:32:46;18.75;73.88
66582;SHT31;53438;48.898;2.308;2022-10-17T05:35:11;18.73;73.94
66582;SHT31;53438;48.898;2.308;2022-10-17T05:37:37;18.69;74.09
66582;SHT31;53438;48.898;2.308;2022-10-17T05:40:03;18.69;74.00
66582;SHT31;53438;48.898;2.308;2022-10-17T05:42:28;18.69;74.21
66582;SHT31;53438;48.898;2.308;2022-10-17T05:44:53;18.73;74.15
66582;SHT31;53438;48.898;2.308;2022-10-17T05:47:19;18.69;74.29
66582;SHT31;53438;48.898;2.308;2022-10-17T05:49:44;18.71;74.15
66582;SHT31;53438;48.898;2.308;2022-10-17T05:52:09;18.71;74.12
66582;SHT31;53438;48.898;2.308;2022-10-17T05:54:35;18.64;74.33
66582;SHT31;53438;48.898;2.308;2022-10-17T05:57:00;18.65;74.64
66582;SHT31;53438;48.898;2.308;2022-10-17T05:59:26;18.67;74.67
66582;SHT31;53438;48.898;2.308;2022-10-17T06:01:52;18.79;74.98
66582;SHT31;53438;48.898;2.308;2022-10-17T06:04:17;18.72;75.28
66582;SHT31;53438;48.898;2.308;2022-10-17T06:06:43;18.75;75.35
66582;SHT31;53438;48.898;2.308;2022-10-17T06:09:08;18.75;75.28
66582;SHT31;53438;48.898;2.308;2022-10-17T06:11:34;18.71;75.47
66582;SHT31;53438;48.898;2.308;2022-10-17T06:14:00;18.71;75.32
66582;SHT31;53438;48.898;2.308;2022-10-17T06:16:25;18.59;75.45
66582;SHT31;53438;48.898;2.308;2022-10-17T06:18:51;18.61;75.71
66582;SHT31;53438;48.898;2.308;2022-10-17T06:21:20;18.71;75.48
66582;SHT31;53438;48.898;2.308;2022-10-17T06:23:46;18.72;75.18
66582;SHT31;53438;48.898;2.308;2022-10-17T06:26:12;18.64;75.21
66582;SHT31;53438;48.898;2.308;2022-10-17T06:28:37;18.64;75.24
66582;SHT31;53438;48.898;2.308;2022-10-17T06:31:07;18.57;75.10
66582;SHT31;53438;48.898;2.308;2022-10-17T06:33:33;18.58;75.32
66582;SHT31;53438;48.898;2.308;2022-10-17T06:35:59;18.58;75.32
66582;SHT31;53438;48.898;2.308;2022-10-17T06:38:24;18.76;74.95
66582;SHT31;53438;48.898;2.308;2022-10-17T06:40:50;18.65;75.14
66582;SHT31;53438;48.898;2.308;2022-10-17T06:43:16;18.65;75.25
66582;SHT31;53438;48.898;2.308;2022-10-17T06:45:41;18.61;75.53
66582;SHT31;53438;48.898;2.308;2022-10-17T06:48:08;18.64;75.69
66582;SHT31;53438;48.898;2.308;2022-10-17T06:50:34;18.67;75.59
66582;SHT31;53438;48.898;2.308;2022-10-17T06:52:59;18.68;75.55
66582;SHT31;53438;48.898;2.308;2022-10-17T06:55:25;18.71;75.36
66582;SHT31;53438;48.898;2.308;2022-10-17T06:57:53;18.68;75.52
66582;SHT31;53438;48.898;2.308;2022-10-17T07:00:19;18.69;75.17
66582;SHT31;53438;48.898;2.308;2022-10-17T07:02:44;18.62;75.27
66582;SHT31;53438;48.898;2.308;2022-10-17T07:05:09;18.64;75.30
66582;SHT31;53438;48.898;2.308;2022-10-17T07:07:35;18.75;74.78
66582;SHT31;53438;48.898;2.308;2022-10-17T07:10:00;18.72;74.90
66582;SHT31;53438;48.898;2.308;2022-10-17T07:12:27;18.72;75.16
66582;SHT31;53438;48.898;2.308;2022-10-17T07:14:53;18.75;75.20
66582;SHT31;53438;48.898;2.308;2022-10-17T07:17:18;18.67;75.21
66582;SHT31;53438;48.898;2.308;2022-10-17T07:19:44;18.75;75.13
66582;SHT31;53438;48.898;2.308;2022-10-17T07:22:10;18.73;75.14
66582;SHT31;53438;48.898;2.308;2022-10-17T07:24:36;18.86;74.67
66582;SHT31;53438;48.898;2.308;2022-10-17T07:27:01;18.84;74.83
66582;SHT31;53438;48.898;2.308;2022-10-17T07:29:27;18.79;74.83
66582;SHT31;53438;48.898;2.308;2022-10-17T07:31:52;18.73;75.31
66582;SHT31;53438;48.898;2.308;2022-10-17T07:34:18;18.76;75.46
66582;SHT31;53438;48.898;2.308;2022-10-17T07:36:44;18.75;75.31
66582;SHT31;53438;48.898;2.308;2022-10-17T07:39:09;18.78;75.47
66582;SHT31;53438;48.898;2.308;2022-10-17T07:41:35;18.78;75.21
66582;SHT31;53438;48.898;2.308;2022-10-17T07:44:01;18.78;75.29
66582;SHT31;53438;48.898;2.308;2022-10-17T07:46:27;18.79;75.40
66582;SHT31;53438;48.898;2.308;2022-10-17T07:48:52;18.84;75.48
66582;SHT31;53438;48.898;2.308;2022-10-17T07:51:17;18.84;75.43
66582;SHT31;53438;48.898;2.308;2022-10-17T07:53:44;18.88;75.31
66582;SHT31;53438;48.898;2.308;2022-10-17T07:56:10;18.88;75.41
66582;SHT31;53438;48.898;2.308;2022-10-17T07:58:36;18.92;75.34
66582;SHT31;53438;48.898;2.308;2022-10-17T08:01:07;18.91;75.30
66582;SHT31;53438;48.898;2.308;2022-10-17T08:03:33;18.91;75.36
66582;SHT31;53438;48.898;2.308;2022-10-17T08:06:00;18.92;75.36
66582;SHT31;53438;48.898;2.308;2022-10-17T08:08:26;18.94;75.42
66582;SHT31;53438;48.898;2.308;2022-10-17T08:10:52;18.99;75.67
66582;SHT31;53438;48.898;2.308;2022-10-17T08:13:19;18.95;75.62
66582;SHT31;53438;48.898;2.308;2022-10-17T08:15:45;18.95;75.84
66582;SHT31;53438;48.898;2.308;2022-10-17T08:18:12;18.92;76.02
66582;SHT31;53438;48.898;2.308;2022-10-17T08:20:39;18.95;75.84
66582;SHT31;53438;48.898;2.308;2022-10-17T08:23:04;18.96;75.75
66582;SHT31;53438;48.898;2.308;2022-10-17T08:25:29;18.98;75.57
66582;SHT31;53438;48.898;2.308;2022-10-17T08:27:55;18.98;75.94
66582;SHT31;53438;48.898;2.308;2022-10-17T08:30:20;18.96;75.84
66582;SHT31;53438;48.898;2.308;2022-10-17T08:32:45;19.05;75.70
66582;SHT31;53438;48.898;2.308;2022-10-17T08:35:11;19.10;75.32
66582;SHT31;53438;48.898;2.308;2022-10-17T08:37:36;19.17;75.31
66582;SHT31;53438;48.898;2.308;2022-10-17T08:40:02;19.20;75.28
66582;SHT31;53438;48.898;2.308;2022-10-17T08:43:03;19.26;75.31
66582;SHT31;53438;48.898;2.308;2022-10-17T08:45:51;19.29;74.98
66582;SHT31;53438;48.898;2.308;2022-10-17T08:48:19;19.26;75.08
66582;SHT31;53438;48.898;2.308;2022-10-17T08:50:55;19.33;74.85
66582;SHT31;53438;48.898;2.308;2022-10-17T08:53:30;19.31;75.14
66582;SHT31;53438;48.898;2.308;2022-10-17T08:56:01;19.37;75.08
66582;SHT31;53438;48.898;2.308;2022-10-17T08:58:29;19.34;75.23
66582;SHT31;53438;48.898;2.308;2022-10-17T09:03:41;19.43;74.92
66582;SHT31;53438;48.898;2.308;2022-10-17T09:06:27;19.47;75.06
66582;SHT31;53438;48.898;2.308;2022-10-17T09:11:47;19.60;74.54
66582;SHT31;53438;48.898;2.308;2022-10-17T09:19:38;19.54;74.79
66582;SHT31;53438;48.898;2.308;2022-10-17T09:22:26;19.54;75.13
66582;SHT31;53438;48.898;2.308;2022-10-17T09:24:53;19.54;75.41
66582;SHT31;53438;48.898;2.308;2022-10-17T09:27:31;19.53;75.49
66582;SHT31;53438;48.898;2.308;2022-10-17T09:30:22;19.50;75.66
66582;SHT31;53438;48.898;2.308;2022-10-17T09:32:49;19.49;75.92
66582;SHT31;53438;48.898;2.308;2022-10-17T09:35:14;19.43;75.97
66582;SHT31;53438;48.898;2.308;2022-10-17T09:37:40;19.47;76.04
66582;SHT31;53438;48.898;2.308;2022-10-17T09:40:12;19.43;76.54
66582;SHT31;53438;48.898;2.308;2022-10-17T09:42:40;19.37;76.87
66582;SHT31;53438;48.898;2.308;2022-10-17T09:45:15;19.34;77.29
66582;SHT31;53438;48.898;2.308;2022-10-17T09:47:52;19.30;77.30
66582;SHT31;53438;48.898;2.308;2022-10-17T09:50:24;19.27;77.92
66582;SHT31;53438;48.898;2.308;2022-10-17T09:52:51;19.27;78.33
66582;SHT31;53438;48.898;2.308;2022-10-17T09:55:21;19.23;78.39
66582;SHT31;53438;48.898;2.308;2022-10-17T09:57:57;19.22;78.79
66582;SHT31;53438;48.898;2.308;2022-10-17T10:00:27;19.22;78.96
66582;SHT31;53438;48.898;2.308;2022-10-17T10:05:34;19.19;79.16
66582;SHT31;53438;48.898;2.308;2022-10-17T10:08:14;19.16;79.22
66582;SHT31;53438;48.898;2.308;2022-10-17T10:10:39;19.19;79.25
66582;SHT31;53438;48.898;2.308;2022-10-17T10:13:18;19.16;79.25
66582;SHT31;53438;48.898;2.308;2022-10-17T10:15:49;19.16;79.56
66582;SHT31;53438;48.898;2.308;2022-10-17T10:21:10;19.15;79.90
66582;SHT31;53438;48.898;2.308;2022-10-17T10:23:37;19.12;79.86
66582;SHT31;53438;48.898;2.308;2022-10-17T10:26:20;19.13;79.87
66582;SHT31;53438;48.898;2.308;2022-10-17T10:28:52;19.12;79.97
66582;SHT31;53438;48.898;2.308;2022-10-17T10:31:25;19.13;80.06
66582;SHT31;53438;48.898;2.308;2022-10-17T10:33:52;19.15;80.54
66582;SHT31;53438;48.898;2.308;2022-10-17T10:36:17;19.15;80.48
66582;SHT31;53438;48.898;2.308;2022-10-17T10:38:52;19.12;80.55
66582;SHT31;53438;48.898;2.308;2022-10-17T10:41:17;19.16;80.51
66582;SHT31;53438;48.898;2.308;2022-10-17T10:43:46;19.19;80.47
66582;SHT31;53438;48.898;2.308;2022-10-17T10:46:24;19.19;80.46
66582;SHT31;53438;48.898;2.308;2022-10-17T10:48:57;19.22;80.48
66582;SHT31;53438;48.898;2.308;2022-10-17T10:51:33;19.23;80.90
66582;SHT31;53438;48.898;2.308;2022-10-17T10:54:22;19.19;80.78
66582;SHT31;53438;48.898;2.308;2022-10-17T10:56:50;19.22;80.82
66582;SHT31;53438;48.898;2.308;2022-10-17T10:59:38;19.26;80.69
66582;SHT31;53438;48.898;2.308;2022-10-17T11:05:11;19.23;80.87
66582;SHT31;53438;48.898;2.308;2022-10-17T11:07:50;19.24;80.95
66582;SHT31;53438;48.898;2.308;2022-10-17T11:13:05;19.29;80.70
66582;SHT31;53438;48.898;2.308;2022-10-17T11:15:43;19.27;81.07
66582;SHT31;53438;48.898;2.308;2022-10-17T11:18:29;19.33;80.88
66582;SHT31;53438;48.898;2.308;2022-10-17T11:21:14;19.31;81.04
66582;SHT31;53438;48.898;2.308;2022-10-17T11:23:45;19.33;80.81
66582;SHT31;53438;48.898;2.308;2022-10-17T11:26:41;19.34;80.99
66582;SHT31;53438;48.898;2.308;2022-10-17T11:29:09;19.37;81.15
66582;SHT31;53438;48.898;2.308;2022-10-17T11:31:40;19.37;81.55
66582;SHT31;53438;48.898;2.308;2022-10-17T11:34:26;19.31;81.54
66582;SHT31;53438;48.898;2.308;2022-10-17T11:36:57;19.33;81.80
66582;SHT31;53438;48.898;2.308;2022-10-17T11:39:33;19.36;81.67
66582;SHT31;53438;48.898;2.308;2022-10-17T11:42:14;19.39;81.48
66582;SHT31;53438;48.898;2.308;2022-10-17T11:44:41;19.34;81.38
66582;SHT31;53438;48.898;2.308;2022-10-17T11:47:35;19.27;81.42
66582;SHT31;53438;48.898;2.308;2022-10-17T11:50:04;19.29;81.65
66582;SHT31;53438;48.898;2.308;2022-10-17T11:52:39;19.30;81.42
66582;SHT31;53438;48.898;2.308;2022-10-17T11:55:24;19.30;81.44
66582;SHT31;53438;48.898;2.308;2022-10-17T12:08:31;19.33;81.27
66582;SHT31;53438;48.898;2.308;2022-10-17T12:18:49;19.33;81.44
66582;SHT31;53438;48.898;2.308;2022-10-17T12:21:15;19.27;81.81
66582;SHT31;53438;48.898;2.308;2022-10-17T12:23:50;19.23;81.49
66582;SHT31;53438;48.898;2.308;2022-10-17T12:26:25;19.27;81.60
66582;SHT31;53438;48.898;2.308;2022-10-17T12:28:50;19.34;81.74
66582;SHT31;53438;48.898;2.308;2022-10-17T12:34:00;19.33;81.51
66582;SHT31;53438;48.898;2.308;2022-10-17T12:52:26;19.23;81.65
66582;SHT31;53438;48.898;2.308;2022-10-17T13:02:54;19.27;81.91
66582;SHT31;53438;48.898;2.308;2022-10-17T13:05:29;19.27;81.84
66582;SHT31;53438;48.898;2.308;2022-10-17T13:07:56;19.24;81.91
66582;SHT31;53438;48.898;2.308;2022-10-17T13:10:26;19.23;82.33
66582;SHT31;53438;48.898;2.308;2022-10-17T13:12:59;19.23;82.21
66582;SHT31;53438;48.898;2.308;2022-10-17T13:15:27;19.22;82.20
66582;SHT31;53438;48.898;2.308;2022-10-17T13:17:58;19.22;82.22
66582;SHT31;53438;48.898;2.308;2022-10-17T13:20:26;19.15;82.66
66582;SHT31;53438;48.898;2.308;2022-10-17T13:22:53;19.16;82.78
66582;SHT31;53438;48.898;2.308;2022-10-17T13:25:19;19.08;82.42
66582;SHT31;53438;48.898;2.308;2022-10-17T13:27:46;19.16;82.72
66582;SHT31;53438;48.898;2.308;2022-10-17T13:30:31;19.19;82.73
66582;SHT31;53438;48.898;2.308;2022-10-17T13:32:56;19.20;82.46
66582;SHT31;53438;48.898;2.308;2022-10-17T13:35:31;19.20;82.85
66582;SHT31;53438;48.898;2.308;2022-10-17T13:37:58;19.23;82.63
66582;SHT31;53438;48.898;2.308;2022-10-17T13:40:27;19.30;82.35
66582;SHT31;53438;48.898;2.308;2022-10-17T13:42:55;19.29;82.46
66582;SHT31;53438;48.898;2.308;2022-10-17T13:45:37;19.29;82.21
66582;SHT31;53438;48.898;2.308;2022-10-17T13:48:05;19.27;82.02
66582;SHT31;53438;48.898;2.308;2022-10-17T13:50:39;19.23;82.46
66582;SHT31;53438;48.898;2.308;2022-10-17T13:58:23;19.17;82.65
66582;SHT31;53438;48.898;2.308;2022-10-17T14:00:49;19.22;82.54
66582;SHT31;53438;48.898;2.308;2022-10-17T14:03:20;19.19;82.64
66582;SHT31;53438;48.898;2.308;2022-10-17T14:06:00;19.20;82.78
66582;SHT31;53438;48.898;2.308;2022-10-17T14:08:27;19.20;83.15
66582;SHT31;53438;48.898;2.308;2022-10-17T14:10:52;19.16;83.11
66582;SHT31;53438;48.898;2.308;2022-10-17T14:13:23;19.17;82.75
66582;SHT31;53438;48.898;2.308;2022-10-17T14:15:54;19.09;82.86
66582;SHT31;53438;48.898;2.308;2022-10-17T14:18:24;19.12;82.71
66582;SHT31;53438;48.898;2.308;2022-10-17T14:20:51;19.15;82.68
66582;SHT31;53438;48.898;2.308;2022-10-17T14:23:36;19.16;82.73
66582;SHT31;53438;48.898;2.308;2022-10-17T14:26:18;19.06;82.23
66582;SHT31;53438;48.898;2.308;2022-10-17T14:28:50;19.09;82.47
66582;SHT31;53438;48.898;2.308;2022-10-17T14:31:32;19.15;82.64
66582;SHT31;53438;48.898;2.308;2022-10-17T14:34:00;19.24;82.20
66582;SHT31;53438;48.898;2.308;2022-10-17T14:36:34;19.23;82.53
66582;SHT31;53438;48.898;2.308;2022-10-17T14:39:00;19.16;82.67
66582;SHT31;53438;48.898;2.308;2022-10-17T14:41:29;19.12;82.96
66582;SHT31;53438;48.898;2.308;2022-10-17T14:44:02;19.10;83.03
66582;SHT31;53438;48.898;2.308;2022-10-17T14:46:30;19.09;82.86
66582;SHT31;53438;48.898;2.308;2022-10-17T14:49:03;19.00;83.52
66582;SHT31;53438;48.898;2.308;2022-10-17T14:51:28;18.99;83.42
66582;SHT31;53438;48.898;2.308;2022-10-17T14:54:04;19.09;83.09
66582;SHT31;53438;48.898;2.308;2022-10-17T14:56:39;19.05;83.66
66582;SHT31;53438;48.898;2.308;2022-10-17T14:59:05;19.03;83.41
66582;SHT31;53438;48.898;2.308;2022-10-17T15:01:32;19.06;83.34
66582;SHT31;53438;48.898;2.308;2022-10-17T15:03:57;19.00;83.27
66582;SHT31;53438;48.898;2.308;2022-10-17T15:06:29;19.00;83.08
66582;SHT31;53438;48.898;2.308;2022-10-17T15:08:56;18.96;83.04
66582;SHT31;53438;48.898;2.308;2022-10-17T15:11:22;18.99;82.93
66582;SHT31;53438;48.898;2.308;2022-10-17T15:13:47;19.00;83.07
66582;SHT31;53438;48.898;2.308;2022-10-17T15:16:21;18.95;82.94
66582;SHT31;53438;48.898;2.308;2022-10-17T15:18:47;18.98;82.92
66582;SHT31;53438;48.898;2.308;2022-10-17T15:21:15;18.95;82.81
66582;SHT31;53438;48.898;2.308;2022-10-17T15:23:40;18.98;82.46
66582;SHT31;53438;48.898;2.308;2022-10-17T15:26:28;18.99;82.64
66582;SHT31;53438;48.898;2.308;2022-10-17T15:28:56;18.96;82.84
66582;SHT31;53438;48.898;2.308;2022-10-17T15:31:23;18.95;83.08
66582;SHT31;53438;48.898;2.308;2022-10-17T15:33:49;18.94;83.00
66582;SHT31;53438;48.898;2.308;2022-10-17T15:36:28;18.92;83.15
66582;SHT31;53438;48.898;2.308;2022-10-17T15:38:59;18.96;82.87
66582;SHT31;53438;48.898;2.308;2022-10-17T15:41:27;18.99;82.75
66582;SHT31;53438;48.898;2.308;2022-10-17T15:43:53;18.95;82.88
66582;SHT31;53438;48.898;2.308;2022-10-17T15:46:22;19.00;82.93
66582;SHT31;53438;48.898;2.308;2022-10-17T15:48:48;18.99;82.89
66582;SHT31;53438;48.898;2.308;2022-10-17T15:51:14;18.92;83.30
66582;SHT31;53438;48.898;2.308;2022-10-17T15:53:39;18.94;83.27
66582;SHT31;53438;48.898;2.308;2022-10-17T15:56:06;18.94;82.47
66582;SHT31;53438;48.898;2.308;2022-10-17T15:58:37;18.98;82.19
66582;SHT31;53438;48.898;2.308;2022-10-17T16:01:05;18.94;82.19
66582;SHT31;53438;48.898;2.308;2022-10-17T16:03:31;18.94;82.08
66582;SHT31;53438;48.898;2.308;2022-10-17T16:05:57;18.78;82.53
66582;SHT31;53438;48.898;2.308;2022-10-17T16:08:23;18.81;83.07
66582;SHT31;53438;48.898;2.308;2022-10-17T16:10:50;18.79;82.82
66582;SHT31;53438;48.898;2.308;2022-10-17T16:13:21;18.78;82.49
66582;SHT31;53438;48.898;2.308;2022-10-17T16:15:47;18.71;82.99
66582;SHT31;53438;48.898;2.308;2022-10-17T16:18:12;18.78;82.40
66582;SHT31;53438;48.898;2.308;2022-10-17T16:20:38;18.85;81.95
66582;SHT31;53438;48.898;2.308;2022-10-17T16:23:04;18.81;81.51
66582;SHT31;53438;48.898;2.308;2022-10-17T16:25:30;18.81;81.70
66582;SHT31;53438;48.898;2.308;2022-10-17T16:27:57;18.86;81.50
66582;SHT31;53438;48.898;2.308;2022-10-17T16:30:25;18.85;81.56
66582;SHT31;53438;48.898;2.308;2022-10-17T16:32:51;18.91;81.53
66582;SHT31;53438;48.898;2.308;2022-10-17T16:35:23;18.92;81.85
66582;SHT31;53438;48.898;2.308;2022-10-17T16:37:48;18.86;82.04
66582;SHT31;53438;48.898;2.308;2022-10-17T16:40:15;18.86;82.16
66582;SHT31;53438;48.898;2.308;2022-10-17T16:42:41;18.84;82.25
66582;SHT31;53438;48.898;2.308;2022-10-17T16:45:06;18.79;82.18
66582;SHT31;53438;48.898;2.308;2022-10-17T16:47:32;18.82;82.23
66582;SHT31;53438;48.898;2.308;2022-10-17T16:49:57;18.79;82.46
66582;SHT31;53438;48.898;2.308;2022-10-17T16:52:23;18.81;82.46
66582;SHT31;53438;48.898;2.308;2022-10-17T16:54:48;18.81;82.09
66582;SHT31;53438;48.898;2.308;2022-10-17T16:57:14;18.79;82.11
66582;SHT31;53438;48.898;2.308;2022-10-17T16:59:39;18.79;82.10
66582;SHT31;53438;48.898;2.308;2022-10-17T17:02:05;18.79;82.35
66582;SHT31;53438;48.898;2.308;2022-10-17T17:04:30;18.79;82.40
66582;SHT31;53438;48.898;2.308;2022-10-17T17:06:56;18.76;82.30
66582;SHT31;53438;48.898;2.308;2022-10-17T17:09:21;18.79;82.26
66582;SHT31;53438;48.898;2.308;2022-10-17T17:11:46;18.88;81.31
66582;SHT31;53438;48.898;2.308;2022-10-17T17:14:13;18.88;81.47
66582;SHT31;53438;48.898;2.308;2022-10-17T17:16:39;18.94;81.46
66582;SHT31;53438;48.898;2.308;2022-10-17T17:19:06;18.96;81.47
66582;SHT31;53438;48.898;2.308;2022-10-17T17:21:33;18.94;81.16
66582;SHT31;53438;48.898;2.308;2022-10-17T17:24:02;18.82;81.60
66582;SHT31;53438;48.898;2.308;2022-10-17T17:26:29;18.76;82.28
66582;SHT31;53438;48.898;2.308;2022-10-17T17:28:57;18.76;82.04
66582;SHT31;53438;48.898;2.308;2022-10-17T17:31:28;18.76;82.17
66582;SHT31;53438;48.898;2.308;2022-10-17T17:33:55;18.81;81.97
66582;SHT31;53438;48.898;2.308;2022-10-17T17:36:30;18.81;82.30
66582;SHT31;53438;48.898;2.308;2022-10-17T17:38:59;18.76;82.41
66582;SHT31;53438;48.898;2.308;2022-10-17T17:41:26;18.65;83.20
66582;SHT31;53438;48.898;2.308;2022-10-17T17:43:51;18.68;83.24
66582;SHT31;53438;48.898;2.308;2022-10-17T17:46:18;18.67;83.36
66582;SHT31;53438;48.898;2.308;2022-10-17T17:48:45;18.71;83.04
66582;SHT31;53438;48.898;2.308;2022-10-17T17:51:13;18.69;82.99
66582;SHT31;53438;48.898;2.308;2022-10-17T17:53:39;18.67;83.21
66582;SHT31;53438;48.898;2.308;2022-10-17T17:56:07;18.64;83.29
66582;SHT31;53438;48.898;2.308;2022-10-17T17:58:33;18.65;83.25
66582;SHT31;53438;48.898;2.308;2022-10-17T18:00:59;18.54;83.72
66582;SHT31;53438;48.898;2.308;2022-10-17T18:03:25;18.59;83.68
66582;SHT31;53438;48.898;2.308;2022-10-17T18:05:51;18.65;83.19
66582;SHT31;53438;48.898;2.308;2022-10-17T18:08:17;18.62;83.23
66582;SHT31;53438;48.898;2.308;2022-10-17T18:10:47;18.49;83.61
66582;SHT31;53438;48.898;2.308;2022-10-17T18:13:13;18.49;83.61
66582;SHT31;53438;48.898;2.308;2022-10-17T18:15:42;18.49;83.63
66582;SHT31;53438;48.898;2.308;2022-10-17T18:18:08;18.49;83.80
66582;SHT31;53438;48.898;2.308;2022-10-17T18:20:39;18.49;83.71
66582;SHT31;53438;48.898;2.308;2022-10-17T18:23:04;18.52;83.65
66582;SHT31;53438;48.898;2.308;2022-10-17T18:25:29;18.45;83.95
66582;SHT31;53438;48.898;2.308;2022-10-17T18:27:55;18.45;84.10
66582;SHT31;53438;48.898;2.308;2022-10-17T18:30:20;18.52;83.74
66582;SHT31;53438;48.898;2.308;2022-10-17T18:32:47;18.51;83.80
66582;SHT31;53438;48.898;2.308;2022-10-17T18:35:14;18.51;83.93
66582;SHT31;53438;48.898;2.308;2022-10-17T18:37:39;18.55;83.79
66582;SHT31;53438;48.898;2.308;2022-10-17T18:40:05;18.55;83.82
66582;SHT31;53438;48.898;2.308;2022-10-17T18:42:31;18.54;83.82
66582;SHT31;53438;48.898;2.308;2022-10-17T18:44:56;18.51;83.82
66582;SHT31;53438;48.898;2.308;2022-10-17T18:47:21;18.47;84.06
66582;SHT31;53438;48.898;2.308;2022-10-17T18:49:48;18.48;84.06
66582;SHT31;53438;48.898;2.308;2022-10-17T18:52:14;18.54;84.20
66582;SHT31;53438;48.898;2.308;2022-10-17T18:54:39;18.48;84.20
66582;SHT31;53438;48.898;2.308;2022-10-17T18:57:05;18.62;83.98
66582;SHT31;53438;48.898;2.308;2022-10-17T18:59:31;18.65;83.82
66582;SHT31;53438;48.898;2.308;2022-10-17T19:01:56;18.61;83.92
66582;SHT31;53438;48.898;2.308;2022-10-17T19:04:22;18.55;84.12
66582;SHT31;53438;48.898;2.308;2022-10-17T19:06:47;18.55;84.39
66582;SHT31;53438;48.898;2.308;2022-10-17T19:09:13;18.57;84.39
66582;SHT31;53438;48.898;2.308;2022-10-17T19:11:38;18.62;84.39
66582;SHT31;53438;48.898;2.308;2022-10-17T19:14:07;18.61;84.56
66582;SHT31;53438;48.898;2.308;2022-10-17T19:16:38;18.62;84.52
66582;SHT31;53438;48.898;2.308;2022-10-17T19:19:09;18.64;84.71
66582;SHT31;53438;48.898;2.308;2022-10-17T19:21:34;18.61;84.87
66582;SHT31;53438;48.898;2.308;2022-10-17T19:24:03;18.64;84.63
66582;SHT31;53438;48.898;2.308;2022-10-17T19:26:30;18.62;84.71
66582;SHT31;53438;48.898;2.308;2022-10-17T19:28:56;18.69;84.66
66582;SHT31;53438;48.898;2.308;2022-10-17T19:31:25;18.64;84.42
66582;SHT31;53438;48.898;2.308;2022-10-17T19:33:51;18.61;84.84
66582;SHT31;53438;48.898;2.308;2022-10-17T19:36:19;18.59;84.95
66582;SHT31;53438;48.898;2.308;2022-10-17T19:38:45;18.59;84.95
66582;SHT31;53438;48.898;2.308;2022-10-17T19:41:13;18.59;84.93
66582;SHT31;53438;48.898;2.308;2022-10-17T19:43:39;18.58;85.04
66582;SHT31;53438;48.898;2.308;2022-10-17T19:46:07;18.58;85.26
66582;SHT31;53438;48.898;2.308;2022-10-17T19:48:35;18.67;84.39
66582;SHT31;53438;48.898;2.308;2022-10-17T19:51:02;18.72;84.20